sensor_id;sensor_type;location;lat;lon;timestamp;pressure;altitude;pressure_sealevel;temperature;humidity
52653;BME280;39353;42.864;12.014;2023-03-20T00:02:18;97852.08;;;23.34;48.94
52653;BME280;39353;42.864;12.014;2023-03-20T00:04:45;97858.11;;;23.33;49.00
52653;BME280;39353;42.864;12.014;2023-03-20T00:07:26;97858.83;;;23.33;48.89
52653;BME280;39353;42.864;12.014;2023-03-20T00:10:08;97857.77;;;23.33;48.85
52653;BME280;39353;42.864;12.014;2023-03-20T00:12:35;97853.90;;;23.33;48.91
52653;BME280;39353;42.864;12.014;2023-03-20T00:15:21;97849.64;;;23.33;48.94
52653;BME280;39353;42.864;12.014;2023-03-20T00:17:49;97849.33;;;23.32;48.96
52653;BME280;39353;42.864;12.014;2023-03-20T00:20:30;97851.98;;;23.31;48.84
52653;BME280;39353;42.864;12.014;2023-03-20T00:22:57;97846.83;;;23.31;48.86
52653;BME280;39353;42.864;12.014;2023-03-20T00:25:39;97836.02;;;23.30;48.88
52653;BME280;39353;42.864;12.014;2023-03-20T00:31:25;97822.02;;;23.24;49.03
52653;BME280;39353;42.864;12.014;2023-03-20T00:33:58;97815.05;;;23.24;49.07
52653;BME280;39353;42.864;12.014;2023-03-20T00:36:28;97812.06;;;23.23;49.05
52653;BME280;39353;42.864;12.014;2023-03-20T00:39:10;97815.44;;;23.22;49.05
52653;BME280;39353;42.864;12.014;2023-03-20T00:46:53;97765.38;;;23.15;49.07
52653;BME280;39353;42.864;12.014;2023-03-20T00:49:35;97758.46;;;23.17;49.01
52653;BME280;39353;42.864;12.014;2023-03-20T00:52:19;97757.85;;;23.16;49.05
52653;BME280;39353;42.864;12.014;2023-03-20T00:54:47;97758.30;;;23.17;49.13
52653;BME280;39353;42.864;12.014;2023-03-20T00:57:25;97760.00;;;23.17;49.15
52653;BME280;39353;42.864;12.014;2023-03-20T01:00:12;97762.39;;;23.14;48.96
52653;BME280;39353;42.864;12.014;2023-03-20T01:02:59;97760.94;;;23.11;49.05
52653;BME280;39353;42.864;12.014;2023-03-20T01:05:41;97759.41;;;23.08;49.02
52653;BME280;39353;42.864;12.014;2023-03-20T01:08:24;97751.75;;;23.05;49.22
52653;BME280;39353;42.864;12.014;2023-03-20T01:11:08;97739.64;;;23.02;49.14
52653;BME280;39353;42.864;12.014;2023-03-20T01:13:50;97731.52;;;22.99;49.36
52653;BME280;39353;42.864;12.014;2023-03-20T01:16:31;97734.13;;;22.98;49.25
52653;BME280;39353;42.864;12.014;2023-03-20T01:19:14;97728.23;;;22.97;49.31
52653;BME280;39353;42.864;12.014;2023-03-20T01:21:56;97716.13;;;22.94;49.27
52653;BME280;39353;42.864;12.014;2023-03-20T01:24:23;97713.55;;;22.92;49.32
52653;BME280;39353;42.864;12.014;2023-03-20T01:26:50;97710.98;;;22.89;49.57
52653;BME280;39353;42.864;12.014;2023-03-20T01:29:33;97706.02;;;22.85;49.51
52653;BME280;39353;42.864;12.014;2023-03-20T01:32:17;97706.31;;;22.81;49.70
52653;BME280;39353;42.864;12.014;2023-03-20T01:35:01;97707.41;;;22.76;49.51
52653;BME280;39353;42.864;12.014;2023-03-20T01:37:28;97717.11;;;22.72;49.57
52653;BME280;39353;42.864;12.014;2023-03-20T01:40:00;97714.88;;;22.69;49.67
52653;BME280;39353;42.864;12.014;2023-03-20T01:42:41;97710.25;;;22.66;49.79
52653;BME280;39353;42.864;12.014;2023-03-20T01:45:20;97704.71;;;22.62;49.84
52653;BME280;39353;42.864;12.014;2023-03-20T01:47:48;97700.42;;;22.59;49.81
52653;BME280;39353;42.864;12.014;2023-03-20T01:50:18;97698.60;;;22.57;49.89
52653;BME280;39353;42.864;12.014;2023-03-20T01:55:40;97697.36;;;22.52;50.00
52653;BME280;39353;42.864;12.014;2023-03-20T01:58:18;97691.73;;;22.49;49.97
52653;BME280;39353;42.864;12.014;2023-03-20T02:00:47;97681.41;;;22.46;49.89
52653;BME280;39353;42.864;12.014;2023-03-20T02:03:31;97683.30;;;22.43;49.87
52653;BME280;39353;42.864;12.014;2023-03-20T02:06:27;97682.09;;;22.40;49.93
52653;BME280;39353;42.864;12.014;2023-03-20T02:08:59;97675.14;;;22.38;50.12
52653;BME280;39353;42.864;12.014;2023-03-20T02:11:29;97674.81;;;22.38;50.00
52653;BME280;39353;42.864;12.014;2023-03-20T02:14:12;97668.30;;;22.35;50.20
52653;BME280;39353;42.864;12.014;2023-03-20T02:16:51;97667.23;;;22.34;50.21
52653;BME280;39353;42.864;12.014;2023-03-20T02:19:54;97664.46;;;22.33;50.21
52653;BME280;39353;42.864;12.014;2023-03-20T02:33:55;97669.84;;;22.24;50.40
52653;BME280;39353;42.864;12.014;2023-03-20T02:39:44;97668.34;;;22.19;50.47
52653;BME280;39353;42.864;12.014;2023-03-20T02:45:28;97671.17;;;22.17;50.71
52653;BME280;39353;42.864;12.014;2023-03-20T02:51:20;97663.02;;;22.14;50.70
52653;BME280;39353;42.864;12.014;2023-03-20T02:54:09;97654.08;;;22.13;50.73
52653;BME280;39353;42.864;12.014;2023-03-20T02:59:56;97643.59;;;22.13;50.65
52653;BME280;39353;42.864;12.014;2023-03-20T03:02:36;97638.89;;;22.13;50.79
52653;BME280;39353;42.864;12.014;2023-03-20T03:05:49;97639.02;;;22.12;50.72
52653;BME280;39353;42.864;12.014;2023-03-20T03:08:19;97639.13;;;22.12;50.85
52653;BME280;39353;42.864;12.014;2023-03-20T03:11:07;97633.46;;;22.10;50.84
52653;BME280;39353;42.864;12.014;2023-03-20T03:13:46;97631.29;;;22.08;50.85
52653;BME280;39353;42.864;12.014;2023-03-20T03:16:22;97636.22;;;22.07;50.88
52653;BME280;39353;42.864;12.014;2023-03-20T03:19:16;97653.73;;;22.04;50.90
52653;BME280;39353;42.864;12.014;2023-03-20T03:22:00;97664.02;;;22.03;50.84
52653;BME280;39353;42.864;12.014;2023-03-20T03:24:34;97665.83;;;22.03;50.93
52653;BME280;39353;42.864;12.014;2023-03-20T03:27:26;97666.80;;;22.01;50.91
52653;BME280;39353;42.864;12.014;2023-03-20T03:35:39;97660.42;;;21.97;50.97
52653;BME280;39353;42.864;12.014;2023-03-20T03:49:07;97642.26;;;21.91;51.05
52653;BME280;39353;42.864;12.014;2023-03-20T03:51:42;97638.61;;;21.90;51.22
52653;BME280;39353;42.864;12.014;2023-03-20T03:54:28;97635.27;;;21.89;51.23
52653;BME280;39353;42.864;12.014;2023-03-20T03:57:22;97638.21;;;21.88;51.15
52653;BME280;39353;42.864;12.014;2023-03-20T04:00:08;97639.98;;;21.87;51.34
52653;BME280;39353;42.864;12.014;2023-03-20T04:02:47;97635.75;;;21.87;51.22
52653;BME280;39353;42.864;12.014;2023-03-20T04:05:19;97629.14;;;21.85;51.24
52653;BME280;39353;42.864;12.014;2023-03-20T04:07:53;97629.58;;;21.84;51.29
52653;BME280;39353;42.864;12.014;2023-03-20T04:10:22;97628.79;;;21.83;51.31
52653;BME280;39353;42.864;12.014;2023-03-20T04:12:50;97629.52;;;21.82;51.41
52653;BME280;39353;42.864;12.014;2023-03-20T04:15:31;97629.15;;;21.81;51.32
52653;BME280;39353;42.864;12.014;2023-03-20T04:17:58;97629.45;;;21.80;51.21
52653;BME280;39353;42.864;12.014;2023-03-20T04:20:26;97630.56;;;21.79;51.32
52653;BME280;39353;42.864;12.014;2023-03-20T04:22:53;97635.24;;;21.78;51.31
52653;BME280;39353;42.864;12.014;2023-03-20T04:25:24;97634.88;;;21.77;51.21
52653;BME280;39353;42.864;12.014;2023-03-20T04:28:08;97633.49;;;21.76;51.23
52653;BME280;39353;42.864;12.014;2023-03-20T04:30:53;97632.91;;;21.75;51.22
52653;BME280;39353;42.864;12.014;2023-03-20T04:33:39;97632.05;;;21.74;51.37
52653;BME280;39353;42.864;12.014;2023-03-20T04:36:14;97635.30;;;21.73;51.41
52653;BME280;39353;42.864;12.014;2023-03-20T04:38:42;97629.58;;;21.71;51.21
52653;BME280;39353;42.864;12.014;2023-03-20T04:41:23;97628.02;;;21.70;51.25
52653;BME280;39353;42.864;12.014;2023-03-20T04:44:08;97617.61;;;21.69;51.19
52653;BME280;39353;42.864;12.014;2023-03-20T04:46:49;97617.66;;;21.69;51.47
52653;BME280;39353;42.864;12.014;2023-03-20T04:49:31;97618.25;;;21.68;51.31
52653;BME280;39353;42.864;12.014;2023-03-20T04:52:12;97622.23;;;21.69;51.39
52653;BME280;39353;42.864;12.014;2023-03-20T04:54:56;97617.30;;;21.68;51.41
52653;BME280;39353;42.864;12.014;2023-03-20T04:57:24;97616.21;;;21.66;51.27
52653;BME280;39353;42.864;12.014;2023-03-20T04:59:51;97618.33;;;21.66;51.34
52653;BME280;39353;42.864;12.014;2023-03-20T05:02:18;97622.95;;;21.65;51.47
52653;BME280;39353;42.864;12.014;2023-03-20T05:04:59;97619.56;;;21.64;51.54
52653;BME280;39353;42.864;12.014;2023-03-20T05:07:40;97615.58;;;21.62;51.52
52653;BME280;39353;42.864;12.014;2023-03-20T05:10:24;97611.94;;;21.61;51.38
52653;BME280;39353;42.864;12.014;2023-03-20T05:12:57;97610.63;;;21.61;51.38
52653;BME280;39353;42.864;12.014;2023-03-20T05:15:34;97606.20;;;21.61;51.47
52653;BME280;39353;42.864;12.014;2023-03-20T05:18:16;97607.57;;;21.63;51.48
52653;BME280;39353;42.864;12.014;2023-03-20T05:21:06;97611.56;;;21.62;51.51
52653;BME280;39353;42.864;12.014;2023-03-20T05:23:54;97609.70;;;21.62;51.43
52653;BME280;39353;42.864;12.014;2023-03-20T05:26:54;97618.69;;;21.63;51.44
52653;BME280;39353;42.864;12.014;2023-03-20T05:29:43;97623.77;;;21.63;51.29
52653;BME280;39353;42.864;12.014;2023-03-20T05:32:29;97631.04;;;21.64;51.38
52653;BME280;39353;42.864;12.014;2023-03-20T05:35:13;97634.58;;;21.63;51.27
52653;BME280;39353;42.864;12.014;2023-03-20T05:37:44;97643.01;;;21.64;51.30
52653;BME280;39353;42.864;12.014;2023-03-20T05:40:22;97650.58;;;21.63;51.27
52653;BME280;39353;42.864;12.014;2023-03-20T05:43:10;97663.39;;;21.63;51.41
52653;BME280;39353;42.864;12.014;2023-03-20T05:45:47;97673.52;;;21.63;51.47
52653;BME280;39353;42.864;12.014;2023-03-20T05:48:47;97675.02;;;21.64;51.39
52653;BME280;39353;42.864;12.014;2023-03-20T05:51:43;97671.86;;;21.64;51.57
52653;BME280;39353;42.864;12.014;2023-03-20T05:54:32;97672.48;;;21.65;51.66
52653;BME280;39353;42.864;12.014;2023-03-20T05:57:06;97668.61;;;21.64;51.75
52653;BME280;39353;42.864;12.014;2023-03-20T05:59:51;97672.70;;;21.63;51.58
52653;BME280;39353;42.864;12.014;2023-03-20T06:02:23;97670.02;;;21.62;51.31
52653;BME280;39353;42.864;12.014;2023-03-20T06:04:56;97673.25;;;21.61;51.61
52653;BME280;39353;42.864;12.014;2023-03-20T06:07:28;97673.17;;;21.60;51.44
52653;BME280;39353;42.864;12.014;2023-03-20T06:10:20;97676.37;;;21.59;51.42
52653;BME280;39353;42.864;12.014;2023-03-20T06:13:02;97686.90;;;21.58;51.44
52653;BME280;39353;42.864;12.014;2023-03-20T06:15:43;97693.11;;;21.58;51.62
52653;BME280;39353;42.864;12.014;2023-03-20T06:18:28;97701.20;;;21.57;51.90
52653;BME280;39353;42.864;12.014;2023-03-20T06:20:56;97701.02;;;21.57;52.08
52653;BME280;39353;42.864;12.014;2023-03-20T06:23:39;97700.95;;;21.56;52.00
52653;BME280;39353;42.864;12.014;2023-03-20T06:26:06;97707.42;;;21.56;51.99
52653;BME280;39353;42.864;12.014;2023-03-20T06:28:57;97707.63;;;21.56;52.14
52653;BME280;39353;42.864;12.014;2023-03-20T06:31:24;97710.37;;;21.54;51.93
52653;BME280;39353;42.864;12.014;2023-03-20T06:34:05;97717.42;;;21.55;51.90
52653;BME280;39353;42.864;12.014;2023-03-20T06:36:51;97716.20;;;21.54;51.88
52653;BME280;39353;42.864;12.014;2023-03-20T06:39:20;97722.21;;;21.54;52.36
52653;BME280;39353;42.864;12.014;2023-03-20T06:41:48;97719.06;;;21.55;52.45
52653;BME280;39353;42.864;12.014;2023-03-20T06:44:19;97720.79;;;21.54;51.90
52653;BME280;39353;42.864;12.014;2023-03-20T06:46:47;97718.54;;;21.53;52.03
52653;BME280;39353;42.864;12.014;2023-03-20T06:49:28;97719.48;;;21.54;52.05
52653;BME280;39353;42.864;12.014;2023-03-20T06:51:55;97721.63;;;21.55;51.64
52653;BME280;39353;42.864;12.014;2023-03-20T06:54:39;97722.46;;;21.55;51.92
52653;BME280;39353;42.864;12.014;2023-03-20T06:57:21;97723.30;;;21.56;51.90
52653;BME280;39353;42.864;12.014;2023-03-20T07:00:04;97731.64;;;21.57;52.02
52653;BME280;39353;42.864;12.014;2023-03-20T07:02:47;97736.33;;;21.56;51.96
52653;BME280;39353;42.864;12.014;2023-03-20T07:05:28;97735.95;;;21.56;52.03
52653;BME280;39353;42.864;12.014;2023-03-20T07:07:56;97735.91;;;21.55;51.00
52653;BME280;39353;42.864;12.014;2023-03-20T07:10:23;97736.27;;;21.50;50.76
52653;BME280;39353;42.864;12.014;2023-03-20T07:12:52;97738.31;;;21.49;51.53
52653;BME280;39353;42.864;12.014;2023-03-20T07:15:19;97730.05;;;21.48;51.57
52653;BME280;39353;42.864;12.014;2023-03-20T07:17:48;97731.98;;;21.47;51.51
52653;BME280;39353;42.864;12.014;2023-03-20T07:20:29;97733.63;;;21.47;51.59
52653;BME280;39353;42.864;12.014;2023-03-20T07:23:10;97743.69;;;21.48;51.60
52653;BME280;39353;42.864;12.014;2023-03-20T07:25:51;97746.88;;;21.49;51.74
52653;BME280;39353;42.864;12.014;2023-03-20T07:28:32;97747.59;;;21.50;51.54
52653;BME280;39353;42.864;12.014;2023-03-20T07:31:24;97740.27;;;21.51;51.49
52653;BME280;39353;42.864;12.014;2023-03-20T07:34:16;97742.03;;;21.51;51.58
52653;BME280;39353;42.864;12.014;2023-03-20T07:36:45;97744.12;;;21.52;51.58
52653;BME280;39353;42.864;12.014;2023-03-20T07:39:27;97744.25;;;21.52;51.50
52653;BME280;39353;42.864;12.014;2023-03-20T07:41:57;97749.88;;;21.52;51.55
52653;BME280;39353;42.864;12.014;2023-03-20T07:44:56;97747.45;;;21.51;51.48
52653;BME280;39353;42.864;12.014;2023-03-20T07:47:23;97749.29;;;21.52;52.00
52653;BME280;39353;42.864;12.014;2023-03-20T07:50:05;97750.45;;;21.54;52.10
52653;BME280;39353;42.864;12.014;2023-03-20T07:52:48;97749.71;;;21.57;52.19
52653;BME280;39353;42.864;12.014;2023-03-20T07:55:17;97748.86;;;21.58;52.07
52653;BME280;39353;42.864;12.014;2023-03-20T07:57:58;97746.56;;;21.52;49.96
52653;BME280;39353;42.864;12.014;2023-03-20T08:00:39;97747.08;;;21.37;49.76
52653;BME280;39353;42.864;12.014;2023-03-20T08:03:20;97754.69;;;21.35;51.12
52653;BME280;39353;42.864;12.014;2023-03-20T08:06:01;97755.16;;;21.34;51.37
52653;BME280;39353;42.864;12.014;2023-03-20T08:08:34;97756.41;;;21.34;51.37
52653;BME280;39353;42.864;12.014;2023-03-20T08:11:17;97757.88;;;21.34;51.40
52653;BME280;39353;42.864;12.014;2023-03-20T08:13:58;97758.58;;;21.35;51.58
52653;BME280;39353;42.864;12.014;2023-03-20T08:16:39;97757.41;;;21.34;51.84
52653;BME280;39353;42.864;12.014;2023-03-20T08:19:20;97755.82;;;21.34;51.60
52653;BME280;39353;42.864;12.014;2023-03-20T08:21:48;97760.54;;;21.34;51.71
52653;BME280;39353;42.864;12.014;2023-03-20T08:24:17;97757.55;;;21.33;51.65
52653;BME280;39353;42.864;12.014;2023-03-20T08:26:58;97759.80;;;21.33;51.66
52653;BME280;39353;42.864;12.014;2023-03-20T08:29:39;97758.08;;;21.32;51.74
52653;BME280;39353;42.864;12.014;2023-03-20T08:32:20;97760.78;;;21.31;51.86
52653;BME280;39353;42.864;12.014;2023-03-20T08:34:47;97763.72;;;21.31;51.75
52653;BME280;39353;42.864;12.014;2023-03-20T08:37:28;97760.67;;;21.29;51.84
52653;BME280;39353;42.864;12.014;2023-03-20T08:40:10;97762.52;;;21.29;51.86
52653;BME280;39353;42.864;12.014;2023-03-20T08:42:39;97763.98;;;21.27;51.87
52653;BME280;39353;42.864;12.014;2023-03-20T08:45:20;97761.88;;;21.24;50.95
52653;BME280;39353;42.864;12.014;2023-03-20T08:47:48;97767.52;;;21.17;50.39
52653;BME280;39353;42.864;12.014;2023-03-20T08:50:15;97761.77;;;21.16;51.57
52653;BME280;39353;42.864;12.014;2023-03-20T08:52:43;97759.49;;;21.17;51.82
52653;BME280;39353;42.864;12.014;2023-03-20T08:55:13;97758.30;;;21.20;51.87
52653;BME280;39353;42.864;12.014;2023-03-20T08:57:55;97755.23;;;21.25;52.11
52653;BME280;39353;42.864;12.014;2023-03-20T09:00:37;97758.70;;;21.29;51.86
52653;BME280;39353;42.864;12.014;2023-03-20T09:03:04;97760.77;;;21.32;51.73
52653;BME280;39353;42.864;12.014;2023-03-20T09:05:47;97755.90;;;21.34;51.77
52653;BME280;39353;42.864;12.014;2023-03-20T09:08:29;97759.66;;;21.37;51.66
52653;BME280;39353;42.864;12.014;2023-03-20T09:10:58;97760.74;;;21.38;51.83
52653;BME280;39353;42.864;12.014;2023-03-20T09:13:40;97761.40;;;21.40;51.82
52653;BME280;39353;42.864;12.014;2023-03-20T09:16:22;97758.08;;;21.42;51.71
52653;BME280;39353;42.864;12.014;2023-03-20T09:19:04;97753.58;;;21.43;51.72
52653;BME280;39353;42.864;12.014;2023-03-20T09:21:33;97754.49;;;21.44;51.56
52653;BME280;39353;42.864;12.014;2023-03-20T09:24:01;97753.85;;;21.45;51.66
52653;BME280;39353;42.864;12.014;2023-03-20T09:26:29;97757.11;;;21.46;51.51
52653;BME280;39353;42.864;12.014;2023-03-20T09:28:56;97754.53;;;21.48;51.51
52653;BME280;39353;42.864;12.014;2023-03-20T09:31:37;97755.74;;;21.49;51.50
52653;BME280;39353;42.864;12.014;2023-03-20T09:34:04;97756.83;;;21.49;51.32
52653;BME280;39353;42.864;12.014;2023-03-20T09:36:45;97756.16;;;21.50;51.28
52653;BME280;39353;42.864;12.014;2023-03-20T09:39:13;97755.98;;;21.51;51.14
52653;BME280;39353;42.864;12.014;2023-03-20T09:54:32;97741.95;;;21.51;50.66
52653;BME280;39353;42.864;12.014;2023-03-20T09:57:03;97737.39;;;21.54;50.58
52653;BME280;39353;42.864;12.014;2023-03-20T09:59:46;97738.95;;;21.62;50.55
52653;BME280;39353;42.864;12.014;2023-03-20T10:06:16;97741.84;;;21.79;50.25
52653;BME280;39353;42.864;12.014;2023-03-20T10:08:22;97740.06;;;21.83;50.20
52653;BME280;39353;42.864;12.014;2023-03-20T10:10:57;97740.72;;;21.87;50.35
52653;BME280;39353;42.864;12.014;2023-03-20T10:14:06;97738.09;;;21.95;50.57
52653;BME280;39353;42.864;12.014;2023-03-20T10:19:22;97731.34;;;22.14;51.18
52653;BME280;39353;42.864;12.014;2023-03-20T10:25:01;97730.70;;;22.32;52.51
52653;BME280;39353;42.864;12.014;2023-03-20T10:27:34;97725.17;;;22.40;53.27
52653;BME280;39353;42.864;12.014;2023-03-20T10:30:47;97722.09;;;22.46;54.27
52653;BME280;39353;42.864;12.014;2023-03-20T10:38:31;97696.37;;;22.56;54.90
52653;BME280;39353;42.864;12.014;2023-03-20T10:41:11;97693.22;;;22.60;55.37
52653;BME280;39353;42.864;12.014;2023-03-20T10:43:57;97687.77;;;22.64;55.53
52653;BME280;39353;42.864;12.014;2023-03-20T10:46:32;97670.56;;;22.64;56.06
52653;BME280;39353;42.864;12.014;2023-03-20T10:49:04;97660.96;;;22.66;56.23
52653;BME280;39353;42.864;12.014;2023-03-20T10:54:04;97648.92;;;22.70;56.42
52653;BME280;39353;42.864;12.014;2023-03-20T10:56:47;97645.52;;;22.71;56.43
52653;BME280;39353;42.864;12.014;2023-03-20T10:59:25;97640.80;;;22.75;56.44
52653;BME280;39353;42.864;12.014;2023-03-20T11:01:53;97655.67;;;22.82;56.73
52653;BME280;39353;42.864;12.014;2023-03-20T11:04:34;97666.64;;;22.86;56.68
52653;BME280;39353;42.864;12.014;2023-03-20T11:07:22;97671.59;;;22.92;56.33
52653;BME280;39353;42.864;12.014;2023-03-20T11:12:40;97668.11;;;23.04;56.11
52653;BME280;39353;42.864;12.014;2023-03-20T11:18:11;97657.66;;;23.10;55.47
52653;BME280;39353;42.864;12.014;2023-03-20T11:20:51;97654.35;;;23.01;51.77
52653;BME280;39353;42.864;12.014;2023-03-20T11:23:26;97651.30;;;22.71;49.35
52653;BME280;39353;42.864;12.014;2023-03-20T11:26:14;97647.70;;;22.67;52.23
52653;BME280;39353;42.864;12.014;2023-03-20T11:28:58;97640.02;;;22.77;52.81
52653;BME280;39353;42.864;12.014;2023-03-20T11:31:40;97635.99;;;22.87;53.23
52653;BME280;39353;42.864;12.014;2023-03-20T11:37:00;97636.52;;;23.04;53.50
52653;BME280;39353;42.864;12.014;2023-03-20T11:45:43;97638.82;;;23.22;53.33
52653;BME280;39353;42.864;12.014;2023-03-20T11:48:37;97637.88;;;23.18;52.61
52653;BME280;39353;42.864;12.014;2023-03-20T11:51:20;97635.45;;;23.08;52.13
52653;BME280;39353;42.864;12.014;2023-03-20T11:54:13;97629.63;;;23.06;52.27
52653;BME280;39353;42.864;12.014;2023-03-20T11:57:04;97622.35;;;23.09;52.24
52653;BME280;39353;42.864;12.014;2023-03-20T11:59:45;97618.81;;;23.14;52.07
52653;BME280;39353;42.864;12.014;2023-03-20T12:02:26;97611.92;;;23.17;52.09
52653;BME280;39353;42.864;12.014;2023-03-20T12:04:59;97608.34;;;23.19;52.09
52653;BME280;39353;42.864;12.014;2023-03-20T12:07:33;97604.08;;;23.22;52.33
52653;BME280;39353;42.864;12.014;2023-03-20T12:10:11;97606.64;;;23.25;52.40
52653;BME280;39353;42.864;12.014;2023-03-20T12:13:03;97606.07;;;23.28;52.31
52653;BME280;39353;42.864;12.014;2023-03-20T12:16:13;97606.87;;;23.33;52.32
52653;BME280;39353;42.864;12.014;2023-03-20T12:18:46;97612.96;;;23.35;52.20
52653;BME280;39353;42.864;12.014;2023-03-20T12:21:42;97611.70;;;23.38;52.26
52653;BME280;39353;42.864;12.014;2023-03-20T12:24:36;97610.48;;;23.40;52.02
52653;BME280;39353;42.864;12.014;2023-03-20T12:27:30;97606.15;;;23.42;51.98
52653;BME280;39353;42.864;12.014;2023-03-20T12:30:17;97611.60;;;23.43;51.70
52653;BME280;39353;42.864;12.014;2023-03-20T12:35:46;97601.80;;;23.41;51.58
52653;BME280;39353;42.864;12.014;2023-03-20T12:38:30;97595.83;;;23.40;51.55
52653;BME280;39353;42.864;12.014;2023-03-20T12:41:25;97589.36;;;23.38;51.41
52653;BME280;39353;42.864;12.014;2023-03-20T12:47:21;97587.75;;;23.34;51.71
52653;BME280;39353;42.864;12.014;2023-03-20T12:55:36;97585.27;;;23.28;51.66
52653;BME280;39353;42.864;12.014;2023-03-20T13:14:00;97575.37;;;23.39;50.99
52653;BME280;39353;42.864;12.014;2023-03-20T13:31:12;97574.31;;;23.54;50.68
52653;BME280;39353;42.864;12.014;2023-03-20T13:37:18;97566.27;;;23.54;50.68
52653;BME280;39353;42.864;12.014;2023-03-20T13:40:20;97564.66;;;23.54;50.57
52653;BME280;39353;42.864;12.014;2023-03-20T13:43:23;97561.29;;;23.52;50.50
52653;BME280;39353;42.864;12.014;2023-03-20T13:46:02;97557.78;;;23.50;50.62
52653;BME280;39353;42.864;12.014;2023-03-20T13:48:50;97559.34;;;23.48;50.63
52653;BME280;39353;42.864;12.014;2023-03-20T14:00:45;97558.91;;;23.43;50.61
52653;BME280;39353;42.864;12.014;2023-03-20T14:08:53;97553.63;;;23.26;49.76
52653;BME280;39353;42.864;12.014;2023-03-20T14:11:36;97558.77;;;23.24;49.95
52653;BME280;39353;42.864;12.014;2023-03-20T14:14:42;97557.16;;;23.25;50.27
52653;BME280;39353;42.864;12.014;2023-03-20T14:17:29;97555.53;;;23.28;50.18
52653;BME280;39353;42.864;12.014;2023-03-20T14:20:10;97559.45;;;23.32;50.26
52653;BME280;39353;42.864;12.014;2023-03-20T14:22:39;97559.16;;;23.37;50.38
52653;BME280;39353;42.864;12.014;2023-03-20T14:25:23;97558.39;;;23.39;50.19
52653;BME280;39353;42.864;12.014;2023-03-20T14:31:19;97551.96;;;23.43;50.26
52653;BME280;39353;42.864;12.014;2023-03-20T14:34:15;97550.99;;;23.48;50.20
52653;BME280;39353;42.864;12.014;2023-03-20T14:36:58;97550.73;;;23.51;49.43
52653;BME280;39353;42.864;12.014;2023-03-20T14:39:47;97547.02;;;23.49;49.36
52653;BME280;39353;42.864;12.014;2023-03-20T14:42:45;97546.41;;;23.56;49.29
52653;BME280;39353;42.864;12.014;2023-03-20T14:48:40;97543.30;;;23.74;49.13
52653;BME280;39353;42.864;12.014;2023-03-20T14:51:13;97544.46;;;23.83;49.10
52653;BME280;39353;42.864;12.014;2023-03-20T14:53:39;97545.18;;;23.92;49.09
52653;BME280;39353;42.864;12.014;2023-03-20T14:56:12;97542.94;;;24.00;49.10
52653;BME280;39353;42.864;12.014;2023-03-20T15:01:44;97549.00;;;24.13;48.99
52653;BME280;39353;42.864;12.014;2023-03-20T15:04:42;97544.23;;;24.22;49.59
52653;BME280;39353;42.864;12.014;2023-03-20T15:07:15;97541.52;;;24.30;49.05
52653;BME280;39353;42.864;12.014;2023-03-20T15:09:59;97547.80;;;24.39;49.05
52653;BME280;39353;42.864;12.014;2023-03-20T15:12:44;97541.59;;;24.45;48.62
52653;BME280;39353;42.864;12.014;2023-03-20T15:15:25;97541.44;;;24.49;48.44
52653;BME280;39353;42.864;12.014;2023-03-20T15:17:53;97537.77;;;24.52;48.35
52653;BME280;39353;42.864;12.014;2023-03-20T15:20:23;97536.68;;;24.53;48.25
52653;BME280;39353;42.864;12.014;2023-03-20T15:22:59;97536.07;;;24.56;48.26
52653;BME280;39353;42.864;12.014;2023-03-20T15:25:47;97534.54;;;24.56;48.06
52653;BME280;39353;42.864;12.014;2023-03-20T15:28:25;97535.88;;;24.58;48.01
52653;BME280;39353;42.864;12.014;2023-03-20T15:30:57;97535.13;;;24.59;47.90
52653;BME280;39353;42.864;12.014;2023-03-20T15:33:28;97537.20;;;24.59;47.90
52653;BME280;39353;42.864;12.014;2023-03-20T15:36:17;97539.12;;;24.58;47.92
52653;BME280;39353;42.864;12.014;2023-03-20T15:39:15;97533.77;;;24.57;47.85
52653;BME280;39353;42.864;12.014;2023-03-20T15:42:01;97532.46;;;24.57;47.77
52653;BME280;39353;42.864;12.014;2023-03-20T15:44:45;97529.80;;;24.55;47.90
52653;BME280;39353;42.864;12.014;2023-03-20T15:47:27;97535.92;;;24.54;47.82
52653;BME280;39353;42.864;12.014;2023-03-20T15:50:12;97537.81;;;24.52;47.87
52653;BME280;39353;42.864;12.014;2023-03-20T15:52:53;97540.84;;;24.49;47.80
52653;BME280;39353;42.864;12.014;2023-03-20T15:55:35;97540.14;;;24.46;47.74
52653;BME280;39353;42.864;12.014;2023-03-20T15:58:16;97541.13;;;24.43;47.43
52653;BME280;39353;42.864;12.014;2023-03-20T16:01:01;97544.10;;;24.37;47.43
52653;BME280;39353;42.864;12.014;2023-03-20T16:03:43;97540.90;;;24.33;47.34
52653;BME280;39353;42.864;12.014;2023-03-20T16:06:12;97538.78;;;24.28;47.36
52653;BME280;39353;42.864;12.014;2023-03-20T16:09:04;97539.31;;;24.23;47.16
52653;BME280;39353;42.864;12.014;2023-03-20T16:11:41;97542.39;;;24.20;47.32
52653;BME280;39353;42.864;12.014;2023-03-20T16:14:21;97542.77;;;24.17;47.29
52653;BME280;39353;42.864;12.014;2023-03-20T16:16:54;97540.99;;;24.13;47.31
52653;BME280;39353;42.864;12.014;2023-03-20T16:19:23;97543.85;;;24.10;47.29
52653;BME280;39353;42.864;12.014;2023-03-20T16:24:38;97545.02;;;24.02;47.27
52653;BME280;39353;42.864;12.014;2023-03-20T16:27:07;97546.06;;;24.00;47.25
52653;BME280;39353;42.864;12.014;2023-03-20T16:29:42;97541.89;;;23.83;44.24
52653;BME280;39353;42.864;12.014;2023-03-20T16:32:41;97541.36;;;23.37;43.06
52653;BME280;39353;42.864;12.014;2023-03-20T16:35:30;97541.73;;;23.29;45.68
52653;BME280;39353;42.864;12.014;2023-03-20T16:40:56;97540.35;;;23.38;46.61
52653;BME280;39353;42.864;12.014;2023-03-20T16:43:45;97544.73;;;23.44;47.05
52653;BME280;39353;42.864;12.014;2023-03-20T16:46:29;97542.88;;;23.50;47.14